createdAt,value
2022-09-12T00:01:13.015Z,98662.59
2022-09-12T00:03:39.849Z,98655.72
2022-09-12T00:06:11.876Z,98651.38
2022-09-12T00:08:38.971Z,98662.97
2022-09-12T00:11:08.067Z,98657.97
2022-09-12T00:13:39.511Z,98659.03
2022-09-12T00:16:08.041Z,98660.09
2022-09-12T00:18:34.728Z,98661.06
2022-09-12T00:21:05.372Z,98652.47
2022-09-12T00:23:33.367Z,98653.41
2022-09-12T00:26:00.044Z,98652.50
2022-09-12T00:28:27.154Z,98660.34
2022-09-12T00:30:53.965Z,98654.06
2022-09-12T00:33:20.667Z,98653.91
2022-09-12T00:35:50.233Z,98650.53
2022-09-12T00:38:17.667Z,98661.06
2022-09-12T00:40:44.330Z,98653.13
2022-09-12T00:43:31.147Z,98654.81
2022-09-12T00:45:59.084Z,98657.47
2022-09-12T00:48:33.960Z,98658.31
2022-09-12T00:51:01.972Z,98648.50
2022-09-12T00:53:28.853Z,98640.66
2022-09-12T00:55:56.744Z,98641.56
2022-09-12T00:58:28.125Z,98650.38
2022-09-12T01:00:54.845Z,98646.84
2022-09-12T01:03:24.085Z,98647.63
2022-09-12T01:06:08.680Z,98645.09
2022-09-12T01:08:37.756Z,98639.84
2022-09-12T01:11:05.929Z,98633.75
2022-09-12T01:13:35.340Z,98631.13
2022-09-12T01:16:04.222Z,98633.75
2022-09-12T01:19:02.638Z,98629.31
2022-09-12T01:21:54.625Z,98638.03
2022-09-12T01:24:26.978Z,98632.75
2022-09-12T01:27:00.234Z,98638.03
2022-09-12T01:29:59.474Z,98632.94
2022-09-12T01:33:02.487Z,98633.00
2022-09-12T01:35:41.658Z,98631.28
2022-09-12T01:38:36.376Z,98628.56
2022-09-12T01:41:25.015Z,98633.00
2022-09-12T01:44:22.807Z,98626.13
2022-09-12T01:47:14.097Z,98622.56
2022-09-12T01:49:57.288Z,98622.69
2022-09-12T01:52:32.443Z,98614.72
2022-09-12T01:55:13.296Z,98612.06
2022-09-12T01:57:46.397Z,98615.56
2022-09-12T02:00:13.641Z,98616.47
2022-09-12T02:03:03.058Z,98614.56
2022-09-12T02:06:08.368Z,98613.97
2022-09-12T02:08:45.350Z,98615.94
2022-09-12T02:11:12.916Z,98609.84
2022-09-12T02:13:42.243Z,98603.81
2022-09-12T02:16:18.250Z,98614.50
2022-09-12T02:18:50.109Z,98613.72
2022-09-12T02:21:20.082Z,98611.06
2022-09-12T02:23:50.814Z,98605.88
2022-09-12T02:26:26.013Z,98609.34
2022-09-12T02:28:52.483Z,98607.59
2022-09-12T02:31:40.563Z,98610.44
2022-09-12T02:34:17.174Z,98608.56
2022-09-12T02:36:55.409Z,98609.47
2022-09-12T02:39:21.985Z,98597.13
2022-09-12T02:41:51.705Z,98593.59
2022-09-12T02:44:19.095Z,98600.53
2022-09-12T02:46:51.632Z,98600.44
2022-09-12T02:49:18.214Z,98594.69
2022-09-12T02:51:46.658Z,98589.34
2022-09-12T02:54:14.736Z,98590.28
2022-09-12T02:56:43.057Z,98590.47
2022-09-12T02:59:13.132Z,98597.75
2022-09-12T03:02:24.566Z,98586.31
2022-09-12T03:05:23.316Z,98588.22
2022-09-12T03:07:52.632Z,98580.69
2022-09-12T03:10:41.927Z,98586.84
2022-09-12T03:13:23.204Z,98586.19
2022-09-12T03:16:12.328Z,98585.53
2022-09-12T03:18:57.204Z,98585.75
2022-09-12T03:21:41.286Z,98582.22
2022-09-12T03:24:23.138Z,98589.06
2022-09-12T03:27:05.445Z,98594.28
2022-09-12T03:29:32.196Z,98593.41
2022-09-12T03:31:59.066Z,98593.47
2022-09-12T03:34:27.849Z,98597.03
2022-09-12T03:36:58.224Z,98594.50
2022-09-12T03:39:26.472Z,98596.13
2022-09-12T03:41:54.257Z,98589.94
2022-09-12T03:44:20.944Z,98590.63
2022-09-12T03:46:47.726Z,98598.56
2022-09-12T03:49:14.637Z,98591.44
2022-09-12T03:51:41.370Z,98592.16
2022-09-12T03:54:08.092Z,98594.81
2022-09-12T03:56:36.201Z,98596.75
2022-09-12T03:59:06.928Z,98589.81
2022-09-12T04:01:34.408Z,98589.84
2022-09-12T04:04:01.113Z,98589.84
2022-09-12T04:06:27.758Z,98587.56
2022-09-12T04:08:55.410Z,98593.84
2022-09-12T04:11:23.263Z,98599.91
2022-09-12T04:13:50.211Z,98588.72
2022-09-12T04:16:17.894Z,98590.59
2022-09-12T04:18:45.820Z,98589.25
2022-09-12T04:21:15.982Z,98591.91
2022-09-12T04:23:42.514Z,98588.38
2022-09-12T04:26:10.225Z,98589.19
2022-09-12T04:28:38.382Z,98591.88
2022-09-12T04:31:08.126Z,98589.41
2022-09-12T04:33:37.368Z,98593.63
2022-09-12T04:36:09.253Z,98594.66
2022-09-12T04:38:36.861Z,98603.34
2022-09-12T04:41:13.785Z,98588.50
2022-09-12T04:43:40.798Z,98592.94
2022-09-12T04:46:08.996Z,98596.41
2022-09-12T04:48:36.002Z,98593.72
2022-09-12T04:51:21.140Z,98596.25
2022-09-12T04:53:50.101Z,98594.47
2022-09-12T04:56:17.110Z,98598.69
2022-09-12T04:58:44.078Z,98593.47
2022-09-12T05:01:15.669Z,98605.56
2022-09-12T05:03:43.718Z,98606.38
2022-09-12T05:06:19.239Z,98598.53
2022-09-12T05:08:46.272Z,98600.25
2022-09-12T05:11:22.728Z,98609.75
2022-09-12T05:13:52.163Z,98612.22
2022-09-12T05:16:20.226Z,98610.22
2022-09-12T05:18:47.499Z,98613.81
2022-09-12T05:21:16.900Z,98613.81
2022-09-12T05:23:43.629Z,98615.53
2022-09-12T05:26:15.606Z,98608.34
2022-09-12T05:28:42.550Z,98619.63
2022-09-12T05:31:14.608Z,98614.19
2022-09-12T05:33:43.520Z,98619.63
2022-09-12T05:36:13.063Z,98622.03
2022-09-12T05:38:39.766Z,98620.28
2022-09-12T05:41:16.949Z,98616.47
2022-09-12T05:43:46.237Z,98622.38
2022-09-12T05:46:15.320Z,98619.38
2022-09-12T05:48:43.844Z,98616.47
2022-09-12T05:51:13.425Z,98625.72
2022-09-12T05:53:41.120Z,98622.59
2022-09-12T05:56:13.577Z,98624.81
2022-09-12T05:58:43.274Z,98619.31
2022-09-12T06:01:12.366Z,98629.44
2022-09-12T06:03:48.347Z,98635.31
2022-09-12T06:06:17.225Z,98638.59
2022-09-12T06:08:45.708Z,98626.31
2022-09-12T06:11:14.847Z,98641.75
2022-09-12T06:13:43.225Z,98634.28
2022-09-12T06:16:15.630Z,98628.50
2022-09-12T06:18:47.250Z,98634.25
2022-09-12T06:21:14.030Z,98627.50
2022-09-12T06:23:41.019Z,98633.69
2022-09-12T06:26:10.213Z,98627.91
2022-09-12T06:28:39.082Z,98630.44
2022-09-12T06:31:11.674Z,98624.28
2022-09-12T06:33:49.402Z,98619.19
2022-09-12T06:36:18.471Z,98625.50
2022-09-12T06:38:48.928Z,98622.16
2022-09-12T06:41:15.936Z,98617.63
2022-09-12T06:43:43.259Z,98621.34
2022-09-12T06:46:11.268Z,98618.78
2022-09-12T06:48:41.747Z,98623.06
2022-09-12T06:51:17.203Z,98615.47
2022-09-12T06:53:45.455Z,98614.03
2022-09-12T06:56:14.853Z,98609.72
2022-09-12T06:58:42.762Z,98608.03
2022-09-12T07:01:22.770Z,98613.53
2022-09-12T07:03:51.720Z,98610.66
2022-09-12T07:06:20.897Z,98609.66
2022-09-12T07:08:47.846Z,98616.84
2022-09-12T07:11:20.317Z,98609.94
2022-09-12T07:13:49.781Z,98616.22
2022-09-12T07:16:19.733Z,98606.78
2022-09-12T07:18:55.044Z,98613.78
2022-09-12T07:21:22.782Z,98613.41
2022-09-12T07:23:49.686Z,98615.88
2022-09-12T07:26:16.740Z,98621.06
2022-09-12T07:28:43.696Z,98618.97
2022-09-12T07:31:16.104Z,98616.75
2022-09-12T07:33:43.606Z,98601.22
2022-09-12T07:36:16.384Z,98606.84
2022-09-12T07:38:44.162Z,98610.16
2022-09-12T07:41:15.583Z,98609.19
2022-09-12T07:43:42.168Z,98608.81
2022-09-12T07:46:09.610Z,98603.19
2022-09-12T07:48:36.947Z,98602.44
2022-09-12T07:51:09.107Z,98599.97
2022-09-12T07:53:41.297Z,98596.69
2022-09-12T07:56:11.137Z,98604.97
2022-09-12T07:58:39.431Z,98605.69
2022-09-12T08:01:07.419Z,98603.66
2022-09-12T08:03:34.353Z,98605.47
2022-09-12T08:06:21.589Z,98611.91
2022-09-12T08:08:49.077Z,98612.09
2022-09-12T08:11:18.017Z,98606.09
2022-09-12T08:13:45.824Z,98607.03
2022-09-12T08:16:18.075Z,98613.47
2022-09-12T08:18:44.783Z,98598.31
2022-09-12T08:21:14.939Z,98602.84
2022-09-12T08:23:42.823Z,98614.03
2022-09-12T08:26:11.267Z,98615.50
2022-09-12T08:28:40.217Z,98605.91
2022-09-12T08:31:08.879Z,98615.63
2022-09-12T08:33:35.497Z,98611.19
2022-09-12T08:36:11.910Z,98605.81
2022-09-12T08:38:40.993Z,98609.19
2022-09-12T08:41:29.057Z,98610.19
2022-09-12T08:44:04.771Z,98598.28
2022-09-12T08:47:08.531Z,98605.81
2022-09-12T08:49:44.491Z,98601.31
2022-09-12T08:52:48.631Z,98597.06
2022-09-12T08:55:22.067Z,98594.13
2022-09-12T08:57:48.564Z,98593.13
2022-09-12T09:00:16.978Z,98596.63
2022-09-12T09:03:01.808Z,98595.94
2022-09-12T09:05:45.909Z,98594.44
2022-09-12T09:08:28.568Z,98587.94
2022-09-12T09:11:24.150Z,98581.19
2022-09-12T09:14:37.565Z,98588.19
2022-09-12T09:17:11.919Z,98586.22
2022-09-12T09:19:48.799Z,98580.78
2022-09-12T09:22:36.559Z,98576.53
2022-09-12T09:25:11.255Z,98583.78
2022-09-12T09:27:46.622Z,98571.00
2022-09-12T09:30:16.050Z,98567.44
2022-09-12T09:32:45.856Z,98570.47
2022-09-12T09:35:22.706Z,98562.31
2022-09-12T09:38:01.654Z,98563.56
2022-09-12T09:40:50.149Z,98565.72
2022-09-12T09:43:24.453Z,98562.53
2022-09-12T09:45:52.409Z,98559.28
2022-09-12T09:48:31.224Z,98556.00
2022-09-12T09:51:00.542Z,98555.34
2022-09-12T09:53:43.213Z,98557.06
2022-09-12T09:56:15.652Z,98552.13
2022-09-12T09:58:42.156Z,98556.78
2022-09-12T10:01:17.466Z,98547.00
2022-09-12T10:03:52.951Z,98550.81
2022-09-12T10:06:19.462Z,98551.88
2022-09-12T10:08:47.959Z,98538.53
2022-09-12T10:11:23.233Z,98549.16
2022-09-12T10:13:58.140Z,98548.72
2022-09-12T10:16:27.849Z,98544.34
2022-09-12T10:18:57.321Z,98547.47
2022-09-12T10:21:28.066Z,98545.63
2022-09-12T10:24:05.323Z,98538.47
2022-09-12T10:26:36.008Z,98541.97
2022-09-12T10:29:13.564Z,98536.84
2022-09-12T10:31:47.664Z,98536.72
2022-09-12T10:34:31.868Z,98536.25
2022-09-12T10:37:07.701Z,98541.47
2022-09-12T10:39:36.243Z,98527.38
2022-09-12T10:42:04.305Z,98527.56
2022-09-12T10:44:33.591Z,98515.13
2022-09-12T10:47:19.681Z,98523.97
2022-09-12T10:49:47.478Z,98510.56
2022-09-12T10:52:28.589Z,98513.91
2022-09-12T10:54:55.283Z,98511.34
2022-09-12T10:57:54.119Z,98509.66
2022-09-12T11:00:28.438Z,98509.81
2022-09-12T11:03:25.211Z,98513.09
2022-09-12T11:06:00.850Z,98515.31
2022-09-12T11:08:42.322Z,98512.84
2022-09-12T11:11:27.262Z,98513.03
2022-09-12T11:14:11.429Z,98507.03
2022-09-12T11:16:59.179Z,98501.56
2022-09-12T11:19:59.606Z,98502.41
2022-09-12T11:22:45.563Z,98497.31
2022-09-12T11:25:32.337Z,98494.78
2022-09-12T11:28:26.063Z,98498.16
2022-09-12T11:31:13.715Z,98487.91
2022-09-12T11:33:48.073Z,98489.34
2022-09-12T11:36:20.693Z,98493.56
2022-09-12T11:39:14.990Z,98488.72
2022-09-12T11:41:45.469Z,98492.97
2022-09-12T11:44:18.533Z,98491.31
2022-09-12T11:46:48.760Z,98485.16
2022-09-12T11:49:35.281Z,98484.31
2022-09-12T11:52:22.928Z,98486.75
2022-09-12T11:55:19.468Z,98479.16
2022-09-12T11:57:53.026Z,98477.56
2022-09-12T12:00:20.857Z,98473.91
2022-09-12T12:03:05.278Z,98474.13
2022-09-12T12:05:41.381Z,98473.34
2022-09-12T12:08:09.663Z,98474.47
2022-09-12T12:10:48.649Z,98473.59
2022-09-12T12:13:33.609Z,98472.91
2022-09-12T12:16:08.224Z,98466.91
2022-09-12T12:18:38.780Z,98457.16
2022-09-12T12:21:37.621Z,98459.97
2022-09-12T12:24:09.979Z,98451.72
2022-09-12T12:26:39.500Z,98445.66
2022-09-12T12:29:18.205Z,98443.09
2022-09-12T12:32:07.969Z,98432.97
2022-09-12T12:34:42.881Z,98441.78
2022-09-12T12:37:29.764Z,98440.59
2022-09-12T12:40:01.168Z,98439.34
2022-09-12T12:42:56.198Z,98449.59
2022-09-12T12:45:25.351Z,98445.91
2022-09-12T12:48:09.645Z,98432.69
2022-09-12T12:50:36.260Z,98434.34
2022-09-12T12:53:24.301Z,98428.31
2022-09-12T12:55:54.721Z,98423.56
2022-09-12T12:58:41.230Z,98423.81
2022-09-12T13:01:13.978Z,98422.13
2022-09-12T13:04:04.220Z,98413.47
2022-09-12T13:06:43.302Z,98412.03
2022-09-12T13:09:24.576Z,98407.19
2022-09-12T13:12:05.292Z,98411.94
2022-09-12T13:14:37.229Z,98411.72
2022-09-12T13:17:14.304Z,98410.56
2022-09-12T13:19:41.535Z,98408.06
2022-09-12T13:22:10.352Z,98412.47
2022-09-12T13:24:44.744Z,98408.06
2022-09-12T13:27:25.772Z,98400.28
2022-09-12T13:30:14.564Z,98395.38
2022-09-12T13:32:43.935Z,98395.59
2022-09-12T13:35:19.766Z,98391.84
2022-09-12T13:38:03.274Z,98389.00
2022-09-12T13:40:51.940Z,98389.13
2022-09-12T13:43:30.545Z,98385.59
2022-09-12T13:45:57.252Z,98375.81
2022-09-12T13:48:25.797Z,98373.25
2022-09-12T13:51:02.266Z,98379.59
2022-09-12T13:53:48.017Z,98372.66
2022-09-12T13:56:19.874Z,98375.34
2022-09-12T13:58:58.159Z,98363.16
2022-09-12T14:01:38.261Z,98366.06
2022-09-12T14:04:34.710Z,98362.91
2022-09-12T14:07:03.764Z,98362.03
2022-09-12T14:09:38.564Z,98357.00
2022-09-12T14:12:19.232Z,98360.31
2022-09-12T14:14:48.937Z,98363.41
2022-09-12T14:17:18.941Z,98361.81
2022-09-12T14:19:49.357Z,98363.03
2022-09-12T14:22:18.032Z,98359.44
2022-09-12T14:24:50.130Z,98363.09
2022-09-12T14:27:26.817Z,98355.13
2022-09-12T14:30:01.095Z,98366.03
2022-09-12T14:32:27.810Z,98355.06
2022-09-12T14:35:06.411Z,98349.44
2022-09-12T14:37:32.947Z,98349.31
2022-09-12T14:40:00.355Z,98345.69
2022-09-12T14:42:31.266Z,98341.66
2022-09-12T14:45:02.632Z,98343.81
2022-09-12T14:47:40.705Z,98334.88
2022-09-12T14:50:21.967Z,98339.09
2022-09-12T14:53:03.068Z,98335.91
2022-09-12T14:55:32.092Z,98327.88
2022-09-12T14:58:28.312Z,98329.09
2022-09-12T15:01:23.646Z,98323.75
2022-09-12T15:03:55.063Z,98327.66
2022-09-12T15:06:36.261Z,98325.09
2022-09-12T15:09:08.423Z,98323.38
2022-09-12T15:11:34.899Z,98328.50
2022-09-12T15:14:13.667Z,98318.97
2022-09-12T15:16:40.115Z,98321.38
2022-09-12T15:19:06.633Z,98321.09
2022-09-12T15:21:33.262Z,98321.94
2022-09-12T15:23:59.732Z,98320.81
2022-09-12T15:26:30.566Z,98322.59
2022-09-12T15:28:57.532Z,98323.13
2022-09-12T15:31:29.252Z,98320.59
2022-09-12T15:33:57.550Z,98314.00
2022-09-12T15:36:25.872Z,98313.72
2022-09-12T15:38:53.585Z,98317.50
2022-09-12T15:41:40.356Z,98310.75
2022-09-12T15:44:10.794Z,98310.00
2022-09-12T15:46:37.498Z,98304.97
2022-09-12T15:49:04.320Z,98297.31
2022-09-12T15:51:30.945Z,98304.19
2022-09-12T15:53:57.393Z,98301.81
2022-09-12T15:56:23.937Z,98299.81
2022-09-12T15:58:58.848Z,98294.59
2022-09-12T16:01:26.679Z,98289.03
2022-09-12T16:03:53.282Z,98286.50
2022-09-12T16:06:19.786Z,98289.50
2022-09-12T16:08:46.313Z,98293.34
2022-09-12T16:11:22.080Z,98293.13
2022-09-12T16:13:49.145Z,98289.41
2022-09-12T16:16:15.710Z,98280.72
2022-09-12T16:18:42.371Z,98289.25
2022-09-12T16:21:12.787Z,98285.41
2022-09-12T16:23:46.163Z,98291.16
2022-09-12T16:26:12.965Z,98285.19
2022-09-12T16:28:40.003Z,98285.81
2022-09-12T16:31:08.521Z,98284.13
2022-09-12T16:33:35.328Z,98280.06
2022-09-12T16:36:07.624Z,98278.13
2022-09-12T16:38:34.765Z,98276.81
2022-09-12T16:41:07.039Z,98281.31
2022-09-12T16:43:34.801Z,98271.91
2022-09-12T16:46:06.997Z,98269.31
2022-09-12T16:48:34.539Z,98272.94
2022-09-12T16:51:04.683Z,98268.19
2022-09-12T16:53:33.241Z,98266.50
2022-09-12T16:56:00.181Z,98265.19
2022-09-12T16:58:27.206Z,98265.81
2022-09-12T17:01:08.995Z,98256.28
2022-09-12T17:03:36.262Z,98257.63
2022-09-12T17:06:12.076Z,98254.66
2022-09-12T17:08:41.482Z,98255.91
2022-09-12T17:11:14.165Z,98253.19
2022-09-12T17:14:03.258Z,98245.16
2022-09-12T17:16:29.417Z,98253.00
2022-09-12T17:18:56.251Z,98247.84
2022-09-12T17:21:23.035Z,98248.78
2022-09-12T17:23:49.877Z,98252.78
2022-09-12T17:26:16.782Z,98249.97
2022-09-12T17:28:43.956Z,98240.63
2022-09-12T17:31:13.184Z,98248.25
2022-09-12T17:33:40.572Z,98247.03
2022-09-12T17:36:11.149Z,98242.06
2022-09-12T17:38:39.792Z,98237.91
2022-09-12T17:41:06.297Z,98240.06
2022-09-12T17:43:33.483Z,98236.81
2022-09-12T17:46:00.157Z,98239.78
2022-09-12T17:48:27.328Z,98237.38
2022-09-12T17:50:54.476Z,98245.38
2022-09-12T17:53:21.262Z,98242.72
2022-09-12T17:55:51.457Z,98243.66
2022-09-12T17:58:20.441Z,98247.47
2022-09-12T18:01:05.570Z,98247.75
2022-09-12T18:03:32.270Z,98243.56
2022-09-12T18:05:58.798Z,98241.09
2022-09-12T18:08:25.444Z,98241.16
2022-09-12T18:10:52.441Z,98246.25
2022-09-12T18:13:19.092Z,98240.94
2022-09-12T18:15:45.741Z,98232.09
2022-09-12T18:18:12.351Z,98239.16
2022-09-12T18:20:40.275Z,98241.69
2022-09-12T18:23:06.692Z,98242.78
2022-09-12T18:25:33.159Z,98229.09
2022-09-12T18:27:59.659Z,98238.34
2022-09-12T18:30:26.113Z,98232.88
2022-09-12T18:32:53.333Z,98228.66
2022-09-12T18:35:19.998Z,98224.09
2022-09-12T18:37:46.543Z,98226.50
2022-09-12T18:40:13.476Z,98217.22
2022-09-12T18:42:40.077Z,98215.00
2022-09-12T18:45:08.506Z,98237.47
2022-09-12T18:47:35.132Z,98230.19
2022-09-12T18:50:01.826Z,98228.38
2022-09-12T18:52:28.456Z,98226.69
2022-09-12T18:54:54.999Z,98220.47
2022-09-12T18:57:21.477Z,98223.22
2022-09-12T18:59:48.087Z,98228.97
2022-09-12T19:02:17.496Z,98229.75
2022-09-12T19:04:44.405Z,98222.97
2022-09-12T19:07:10.936Z,98226.69
2022-09-12T19:09:37.578Z,98233.28
2022-09-12T19:12:04.465Z,98230.34
2022-09-12T19:14:31.184Z,98225.31
2022-09-12T19:16:57.803Z,98230.78
2022-09-12T19:19:24.484Z,98232.31
2022-09-12T19:21:51.253Z,98235.41
2022-09-12T19:24:18.202Z,98235.94
2022-09-12T19:26:45.155Z,98234.56
2022-09-12T19:29:12.032Z,98234.88
2022-09-12T19:31:38.579Z,98226.16
2022-09-12T19:34:06.859Z,98240.19
2022-09-12T19:36:44.997Z,98227.69
2022-09-12T19:39:13.207Z,98242.09
2022-09-12T19:41:39.757Z,98231.19
2022-09-12T19:44:06.311Z,98230.84
2022-09-12T19:46:33.045Z,98238.66
2022-09-12T19:48:59.877Z,98230.69
2022-09-12T19:51:26.586Z,98230.53
2022-09-12T19:53:53.594Z,98223.47
2022-09-12T19:56:20.634Z,98227.50
2022-09-12T19:58:52.278Z,98227.16
2022-09-12T20:01:28.514Z,98234.25
2022-09-12T20:03:56.626Z,98234.81
2022-09-12T20:06:23.327Z,98223.50
2022-09-12T20:08:50.681Z,98222.59
2022-09-12T20:11:19.602Z,98216.63
2022-09-12T20:13:47.448Z,98212.94
2022-09-12T20:16:21.414Z,98217.44
2022-09-12T20:18:53.780Z,98219.94
2022-09-12T20:21:25.394Z,98224.41
2022-09-12T20:23:52.334Z,98216.34
2022-09-12T20:26:20.506Z,98222.59
2022-09-12T20:28:47.465Z,98217.88
2022-09-12T20:31:16.071Z,98233.25
2022-09-12T20:33:43.306Z,98222.66
2022-09-12T20:36:15.679Z,98215.72
2022-09-12T20:38:48.937Z,98213.53
2022-09-12T20:41:16.104Z,98207.16
2022-09-12T20:43:42.853Z,98203.69
2022-09-12T20:46:10.859Z,98199.50
2022-09-12T20:48:39.032Z,98204.03
2022-09-12T20:51:06.325Z,98202.94
2022-09-12T20:53:35.195Z,98194.03
2022-09-12T20:56:03.038Z,98183.50
2022-09-12T20:58:29.754Z,98187.31
2022-09-12T21:00:56.780Z,98185.63
2022-09-12T21:03:23.456Z,98178.78
2022-09-12T21:05:50.101Z,98173.47
2022-09-12T21:08:16.893Z,98169.97
2022-09-12T21:10:44.848Z,98168.94
2022-09-12T21:13:12.463Z,98153.50
2022-09-12T21:15:40.301Z,98159.97
2022-09-12T21:18:07.394Z,98155.53
2022-09-12T21:20:34.511Z,98153.81
2022-09-12T21:23:01.351Z,98151.47
2022-09-12T21:25:29.285Z,98153.03
2022-09-12T21:27:56.024Z,98153.19
2022-09-12T21:30:22.655Z,98147.03
2022-09-12T21:32:49.312Z,98141.72
2022-09-12T21:35:16.100Z,98145.84
2022-09-12T21:37:42.681Z,98152.31
2022-09-12T21:40:09.590Z,98152.41
2022-09-12T21:42:36.231Z,98147.56
2022-09-12T21:45:02.785Z,98141.03
2022-09-12T21:47:29.253Z,98146.09
2022-09-12T21:49:55.776Z,98139.06
2022-09-12T21:52:22.240Z,98138.53
2022-09-12T21:54:48.699Z,98138.84
2022-09-12T21:57:15.704Z,98127.16
2022-09-12T21:59:42.189Z,98133.09
2022-09-12T22:02:08.929Z,98123.72
2022-09-12T22:04:35.536Z,98123.03
2022-09-12T22:07:02.171Z,98118.59
2022-09-12T22:09:28.715Z,98116.44
2022-09-12T22:11:55.937Z,98110.25
2022-09-12T22:14:22.581Z,98113.97
2022-09-12T22:16:49.544Z,98120.22
2022-09-12T22:19:16.345Z,98114.53
2022-09-12T22:22:03.110Z,98117.47
2022-09-12T22:24:30.013Z,98115.00
2022-09-12T22:26:57.684Z,98112.81
2022-09-12T22:29:24.324Z,98116.16
2022-09-12T22:31:50.892Z,98116.53
2022-09-12T22:34:17.496Z,98116.41
2022-09-12T22:36:44.722Z,98112.34
2022-09-12T22:39:11.265Z,98112.19
2022-09-12T22:41:37.947Z,98108.91
2022-09-12T22:44:04.775Z,98110.31
2022-09-12T22:46:31.360Z,98107.19
2022-09-12T22:48:57.895Z,98107.19
2022-09-12T22:51:24.465Z,98108.69
2022-09-12T22:53:51.651Z,98101.41
2022-09-12T22:56:18.998Z,98098.78
2022-09-12T22:58:45.604Z,98095.66
2022-09-12T23:01:12.314Z,98086.91
2022-09-12T23:03:39.348Z,98089.72
2022-09-12T23:06:06.285Z,98080.06
2022-09-12T23:08:35.163Z,98077.25
2022-09-12T23:11:04.267Z,98078.78
2022-09-12T23:13:31.008Z,98069.03
2022-09-12T23:16:01.368Z,98072.75
2022-09-12T23:18:28.425Z,98068.84
2022-09-12T23:21:00.254Z,98066.97
2022-09-12T23:23:27.464Z,98068.84
2022-09-12T23:26:08.158Z,98064.41
2022-09-12T23:28:35.549Z,98074.59
2022-09-12T23:31:02.903Z,98068.34
2022-09-12T23:33:31.157Z,98065.88
2022-09-12T23:36:02.500Z,98069.47
2022-09-12T23:38:30.601Z,98062.59
2022-09-12T23:40:57.724Z,98052.41
2022-09-12T23:43:24.273Z,98047.66
2022-09-12T23:45:50.962Z,98045.94
2022-09-12T23:48:18.319Z,98047.81
2022-09-12T23:50:46.705Z,98048.97
2022-09-12T23:53:14.660Z,98045.00
2022-09-12T23:55:41.769Z,98037.50
2022-09-12T23:58:08.740Z,98041.19
